Time;durP1;ratioP1;P1;durP2;ratioP2;P2;SDS_P1;SDS_P2;PMS_P1;PMS_P2;Temp;Humidity;BMP_temperature;BMP_pressure;BME280_temperature;BME280_humidity;BME280_pressure;Samples;Min_cycle;Max_cycle;Signal;HPM_P1;HPM_P2
2022/05/05 00:01:29;;;;;;;14.00;5.73;;;10.50;99.90;;;;;;5036448;28;20180;-84
2022/05/05 00:03:55;;;;;;;13.10;5.43;;;10.60;99.90;;;;;;5036818;28;20172;-84
2022/05/05 00:06:21;;;;;;;18.83;5.53;;;10.40;99.90;;;;;;5036689;28;20208;-84
2022/05/05 00:08:46;;;;;;;16.87;5.87;;;10.40;99.90;;;;;;5036258;28;20182;-85
2022/05/05 00:16:40;;;;;;;13.90;5.43;;;10.30;99.90;;;;;;5053929;28;20361;-84
2022/05/05 00:19:06;;;;;;;11.33;5.77;;;10.40;99.90;;;;;;5036076;28;20176;-85
2022/05/05 00:21:31;;;;;;;12.50;5.60;;;10.40;99.90;;;;;;5036000;28;20173;-85
2022/05/05 00:23:57;;;;;;;11.20;5.50;;;10.40;99.90;;;;;;5036589;28;20175;-84
2022/05/05 00:26:23;;;;;;;17.50;6.07;;;10.40;99.90;;;;;;5035945;28;20206;-84
2022/05/05 00:28:48;;;;;;;14.60;6.00;;;10.30;99.90;;;;;;5036207;28;20529;-85
2022/05/05 00:31:14;;;;;;;13.87;6.20;;;10.40;99.90;;;;;;5035520;28;20186;-84
2022/05/05 00:33:40;;;;;;;12.10;6.60;;;10.50;99.90;;;;;;5036146;28;20186;-85
2022/05/05 00:36:05;;;;;;;15.73;6.30;;;10.50;99.90;;;;;;5035699;28;20693;-84
2022/05/05 00:38:31;;;;;;;11.80;5.93;;;10.30;99.90;;;;;;5035786;28;20654;-85
2022/05/05 00:40:57;;;;;;;14.47;6.67;;;10.30;99.90;;;;;;5035607;28;20188;-85
2022/05/05 00:43:23;;;;;;;11.20;5.53;;;10.40;99.90;;;;;;5035846;28;20178;-85
2022/05/05 00:45:49;;;;;;;12.10;5.97;;;10.40;99.90;;;;;;5037037;28;20179;-84
2022/05/05 00:48:16;;;;;;;12.23;5.50;;;10.40;99.90;;;;;;5037228;28;20215;-85
2022/05/05 00:50:41;;;;;;;9.47;5.50;;;10.40;99.90;;;;;;5037388;28;20176;-85
2022/05/05 00:53:07;;;;;;;16.63;6.07;;;10.50;99.90;;;;;;5037437;28;20197;-85
2022/05/05 00:55:37;;;;;;;13.80;6.30;;;10.30;99.90;;;;;;5036213;28;20186;-85
2022/05/05 00:58:03;;;;;;;14.97;6.10;;;10.40;99.90;;;;;;5035192;28;20210;-85
2022/05/05 01:00:32;;;;;;;14.90;6.23;;;10.50;99.90;;;;;;5035242;28;20181;-85
2022/05/05 01:02:59;;;;;;;16.40;6.50;;;10.40;99.90;;;;;;5035245;28;20275;-85
2022/05/05 01:05:27;;;;;;;16.63;6.50;;;10.40;99.90;;;;;;5035099;28;20211;-84
2022/05/05 01:07:55;;;;;;;20.60;6.60;;;10.40;99.90;;;;;;5034846;28;20213;-84
2022/05/05 01:10:21;;;;;;;16.73;6.67;;;10.40;99.90;;;;;;5034924;28;20187;-84
2022/05/05 01:12:47;;;;;;;21.40;6.50;;;10.20;99.90;;;;;;5035306;28;20177;-85
2022/05/05 01:15:13;;;;;;;14.43;6.43;;;10.20;99.90;;;;;;5034942;28;20179;-85
2022/05/05 01:17:39;;;;;;;11.23;5.80;;;10.30;99.90;;;;;;5034537;28;20700;-85
2022/05/05 01:20:19;;;;;;;25.87;6.77;;;10.30;99.90;;;;;;5034785;28;20286;-85
2022/05/05 01:22:45;;;;;;;16.33;6.47;;;10.20;99.90;;;;;;5034971;28;20174;-85
2022/05/05 01:28:14;;;;;;;21.87;7.00;;;10.30;99.90;;;;;;5052336;28;20219;-85
2022/05/05 01:30:48;;;;;;;15.73;6.50;;;10.20;99.90;;;;;;5034748;28;20157;-85
2022/05/05 01:33:21;;;;;;;14.47;6.63;;;10.30;99.90;;;;;;5034815;28;20169;-85
2022/05/05 01:35:49;;;;;;;18.93;7.80;;;10.20;99.90;;;;;;5035079;28;20205;-85
2022/05/05 01:38:17;;;;;;;13.63;6.23;;;10.20;99.90;;;;;;5035093;28;20197;-85
2022/05/05 01:40:46;;;;;;;18.13;7.03;;;10.20;99.90;;;;;;5034798;28;20182;-85
2022/05/05 01:43:13;;;;;;;18.57;7.07;;;10.20;99.90;;;;;;5034961;28;20271;-85
2022/05/05 01:45:39;;;;;;;16.47;6.33;;;10.00;99.90;;;;;;5034837;28;20181;-85
2022/05/05 01:48:07;;;;;;;22.73;7.27;;;10.00;99.90;;;;;;5018250;28;20246;-85
2022/05/05 01:50:33;;;;;;;16.07;7.17;;;10.20;99.90;;;;;;5034772;28;20632;-84
2022/05/05 01:53:00;;;;;;;17.37;7.50;;;9.90;99.90;;;;;;5034784;28;20172;-85
2022/05/05 01:55:30;;;;;;;21.50;7.80;;;9.90;99.90;;;;;;5034035;28;20176;-85
2022/05/05 01:57:57;;;;;;;20.17;7.80;;;9.70;99.90;;;;;;5034608;28;20204;-85
2022/05/05 02:00:24;;;;;;;16.40;7.50;;;9.90;99.90;;;;;;5034714;28;20252;-85
2022/05/05 02:02:50;;;;;;;14.90;7.37;;;9.70;99.90;;;;;;5034384;28;20175;-85
2022/05/05 02:05:16;;;;;;;18.97;7.30;;;9.80;99.90;;;;;;5052230;28;20198;-85
2022/05/05 02:07:43;;;;;;;23.07;8.60;;;9.50;99.90;;;;;;5033972;28;20214;-85
2022/05/05 02:10:15;;;;;;;17.37;7.97;;;9.60;99.90;;;;;;5034070;28;20231;-85
2022/05/05 02:12:42;;;;;;;18.53;7.83;;;9.50;99.90;;;;;;5034217;28;20177;-85
2022/05/05 02:15:10;;;;;;;19.93;8.20;;;9.40;99.90;;;;;;5034350;28;20169;-85
2022/05/05 02:17:37;;;;;;;13.47;7.37;;;9.50;99.90;;;;;;5034375;28;20202;-85
2022/05/05 02:20:05;;;;;;;21.30;7.50;;;9.40;99.90;;;;;;5034388;28;20569;-85
2022/05/05 02:22:31;;;;;;;20.70;7.90;;;9.50;99.90;;;;;;5034289;28;20194;-85
2022/05/05 02:24:56;;;;;;;24.57;8.47;;;9.50;99.90;;;;;;5034871;28;20176;-85
2022/05/05 02:27:22;;;;;;;20.90;7.90;;;9.50;99.90;;;;;;5034261;28;20233;-85
2022/05/05 02:29:48;;;;;;;16.97;8.00;;;9.60;99.90;;;;;;5034393;28;20168;-84
2022/05/05 02:32:15;;;;;;;15.50;7.40;;;9.60;99.90;;;;;;5033981;28;20267;-84
2022/05/05 02:34:41;;;;;;;22.90;8.23;;;9.40;99.90;;;;;;5035122;28;20179;-84
2022/05/05 02:39:51;;;;;;;16.87;7.80;;;9.50;99.90;;;;;;5053189;28;20587;-84
2022/05/05 02:42:17;;;;;;;19.17;8.10;;;9.50;99.90;;;;;;5038009;28;20181;-84
2022/05/05 02:44:44;;;;;;;19.53;7.07;;;9.40;99.90;;;;;;5038550;28;20627;-84
2022/05/05 02:47:10;;;;;;;12.97;7.40;;;9.60;99.90;;;;;;5037608;28;20227;-84
2022/05/05 02:49:36;;;;;;;24.63;8.30;;;9.50;99.90;;;;;;5037853;28;20201;-84
2022/05/05 02:52:03;;;;;;;14.87;7.80;;;9.50;99.90;;;;;;5037879;28;20614;-84
2022/05/05 02:54:47;;;;;;;20.10;7.33;;;9.40;99.90;;;;;;5038337;28;20170;-84
2022/05/05 02:57:14;;;;;;;19.87;8.40;;;9.50;99.90;;;;;;5036956;28;20194;-84
2022/05/05 02:59:40;;;;;;;17.77;7.77;;;9.50;99.90;;;;;;5038028;28;20181;-84
2022/05/05 03:02:09;;;;;;;16.73;8.13;;;9.40;99.90;;;;;;5037440;28;20174;-84
2022/05/05 03:04:35;;;;;;;16.03;7.40;;;9.30;99.90;;;;;;5037553;28;20215;-84
2022/05/05 03:07:00;;;;;;;13.87;7.07;;;9.30;99.90;;;;;;5037286;28;20245;-84
2022/05/05 03:09:26;;;;;;;19.87;8.13;;;9.50;99.90;;;;;;5038157;28;20228;-84
2022/05/05 03:11:52;;;;;;;19.97;8.23;;;9.40;99.90;;;;;;5037261;28;20630;-84
2022/05/05 03:14:17;;;;;;;19.60;8.67;;;9.30;99.90;;;;;;5037888;28;20173;-84
2022/05/05 03:16:43;;;;;;;15.23;8.40;;;9.30;99.90;;;;;;5036873;28;20285;-84
2022/05/05 03:19:09;;;;;;;19.17;8.03;;;9.50;99.90;;;;;;5038085;28;20179;-84
2022/05/05 03:21:36;;;;;;;23.10;8.47;;;9.40;99.90;;;;;;5036922;28;20632;-84
2022/05/05 03:24:01;;;;;;;21.07;8.67;;;9.40;99.90;;;;;;5037638;28;20179;-85
2022/05/05 03:26:27;;;;;;;19.03;8.27;;;9.30;99.90;;;;;;5036940;28;20197;-85
2022/05/05 03:28:53;;;;;;;18.37;7.87;;;9.20;99.90;;;;;;5036930;28;20174;-85
2022/05/05 03:31:18;;;;;;;16.77;7.43;;;9.50;99.90;;;;;;5036703;28;20656;-85
2022/05/05 03:33:44;;;;;;;20.47;8.27;;;9.50;99.90;;;;;;5037313;28;20221;-85
2022/05/05 03:36:09;;;;;;;17.17;7.47;;;9.50;99.90;;;;;;5036873;28;20170;-85
2022/05/05 03:38:36;;;;;;;20.73;7.50;;;9.50;99.90;;;;;;5036950;28;20174;-85
2022/05/05 03:41:01;;;;;;;20.37;8.10;;;9.40;99.90;;;;;;5036812;28;20178;-85
2022/05/05 03:43:27;;;;;;;18.93;8.30;;;9.30;99.90;;;;;;5037077;28;20179;-85
2022/05/05 03:45:53;;;;;;;18.40;8.30;;;9.60;99.90;;;;;;5037650;28;20181;-85
2022/05/05 03:48:18;;;;;;;18.70;8.10;;;9.40;99.90;;;;;;5036672;28;20304;-85
2022/05/05 03:50:44;;;;;;;18.90;8.27;;;9.40;99.90;;;;;;5055621;28;20181;-85
2022/05/05 03:53:10;;;;;;;20.70;9.30;;;9.40;99.90;;;;;;5036455;28;20177;-85
2022/05/05 03:55:35;;;;;;;20.10;8.67;;;9.30;99.90;;;;;;5036736;28;20177;-85
2022/05/05 03:58:01;;;;;;;22.67;9.07;;;9.50;99.90;;;;;;5036671;28;20213;-85
2022/05/05 04:00:27;;;;;;;21.83;8.70;;;9.40;99.90;;;;;;5036750;28;20180;-85
2022/05/05 04:05:37;;;;;;;18.47;9.83;;;9.40;99.90;;;;;;5055100;28;20166;-85
2022/05/05 04:08:03;;;;;;;18.77;9.20;;;9.50;99.90;;;;;;5036917;28;20208;-84
2022/05/05 04:10:30;;;;;;;22.10;9.77;;;9.50;99.90;;;;;;5036498;28;20171;-85
2022/05/05 04:12:56;;;;;;;20.97;9.10;;;9.50;99.90;;;;;;5036431;28;20180;-85
2022/05/05 04:15:22;;;;;;;20.77;8.80;;;9.40;99.90;;;;;;5036668;28;20177;-85
2022/05/05 04:17:48;;;;;;;15.60;8.57;;;9.50;99.90;;;;;;5035923;28;20205;-85
2022/05/05 04:20:14;;;;;;;16.77;9.00;;;9.60;99.90;;;;;;5036307;28;20173;-84
2022/05/05 04:22:41;;;;;;;23.50;9.40;;;9.50;99.90;;;;;;5035978;28;20179;-84
2022/05/05 04:25:07;;;;;;;19.47;10.13;;;9.50;99.90;;;;;;5036818;28;20218;-84
2022/05/05 04:27:33;;;;;;;19.87;9.60;;;9.30;99.90;;;;;;5036180;28;20200;-85
2022/05/05 04:29:59;;;;;;;21.70;9.80;;;9.50;99.90;;;;;;5035893;28;20174;-85
2022/05/05 04:32:25;;;;;;;24.53;9.67;;;9.60;99.90;;;;;;5035878;28;20174;-85
2022/05/05 04:34:51;;;;;;;29.23;10.33;;;9.60;99.90;;;;;;5036371;28;20186;-85
2022/05/05 04:37:16;;;;;;;20.27;9.27;;;9.60;99.90;;;;;;5035840;28;20662;-84
2022/05/05 04:39:42;;;;;;;20.07;9.57;;;9.70;99.90;;;;;;5035934;28;20207;-84
2022/05/05 04:42:09;;;;;;;20.17;9.57;;;9.60;99.90;;;;;;5035510;28;20182;-85
2022/05/05 04:44:35;;;;;;;25.07;9.80;;;9.50;99.90;;;;;;5035923;28;20227;-85
2022/05/05 04:47:01;;;;;;;25.03;10.43;;;9.40;99.90;;;;;;5035616;28;20606;-84
2022/05/05 04:49:27;;;;;;;22.83;9.30;;;9.60;99.90;;;;;;5035622;28;20229;-84
2022/05/05 04:51:52;;;;;;;16.00;9.20;;;9.80;99.90;;;;;;5036759;28;20539;-85
2022/05/05 04:54:18;;;;;;;18.40;9.63;;;9.90;99.90;;;;;;5035966;28;20184;-85
2022/05/05 04:56:44;;;;;;;24.30;9.83;;;10.00;99.90;;;;;;5037878;28;20202;-84
2022/05/05 04:59:10;;;;;;;23.30;9.23;;;10.00;99.90;;;;;;5035475;28;20192;-84
2022/05/05 05:01:36;;;;;;;20.97;9.87;;;9.90;99.90;;;;;;5035513;28;20187;-84
2022/05/05 05:04:02;;;;;;;18.90;9.50;;;10.00;99.90;;;;;;5034487;28;20544;-85
2022/05/05 05:06:28;;;;;;;15.57;8.67;;;10.10;99.90;;;;;;5036169;28;20278;-84
2022/05/05 05:08:55;;;;;;;21.97;9.77;;;10.00;99.90;;;;;;5035368;28;20657;-84
2022/05/05 05:11:21;;;;;;;18.47;8.73;;;10.10;99.90;;;;;;5035382;28;20190;-84
2022/05/05 05:13:47;;;;;;;17.70;9.43;;;10.20;99.90;;;;;;5036609;28;20570;-85
2022/05/05 05:16:13;;;;;;;24.13;9.63;;;10.30;99.90;;;;;;5035644;28;20175;-84
2022/05/05 05:18:39;;;;;;;14.50;8.13;;;10.40;99.90;;;;;;5035431;28;20187;-84
2022/05/05 05:21:04;;;;;;;14.70;8.27;;;10.40;99.90;;;;;;5035101;28;20174;-84
2022/05/05 05:23:30;;;;;;;16.83;8.40;;;10.50;99.90;;;;;;5035306;28;20620;-84
2022/05/05 05:25:56;;;;;;;16.13;8.57;;;10.50;99.90;;;;;;5035843;28;20174;-84
2022/05/05 05:28:21;;;;;;;15.80;8.90;;;10.50;99.90;;;;;;5035414;28;20237;-84
2022/05/05 05:30:47;;;;;;;15.40;7.97;;;10.60;99.90;;;;;;5034767;28;20196;-84
2022/05/05 05:33:13;;;;;;;22.17;8.77;;;10.80;99.90;;;;;;5035050;28;20182;-84
2022/05/05 05:35:39;;;;;;;17.83;8.40;;;10.80;99.90;;;;;;5035703;28;20173;-84
2022/05/05 05:38:05;;;;;;;20.33;9.17;;;10.90;99.90;;;;;;5036891;28;20204;-84
2022/05/05 05:40:31;;;;;;;21.90;8.40;;;11.10;99.90;;;;;;5037130;28;20238;-84
2022/05/05 05:42:57;;;;;;;29.93;9.07;;;11.10;99.90;;;;;;5035662;28;20180;-84
2022/05/05 05:45:23;;;;;;;25.33;7.60;;;11.20;99.90;;;;;;5036471;28;20181;-84
2022/05/05 05:47:49;;;;;;;20.30;8.27;;;11.10;99.90;;;;;;5035868;28;20205;-84
2022/05/05 05:50:14;;;;;;;22.87;9.00;;;11.30;99.90;;;;;;5036686;28;20169;-84
2022/05/05 05:52:40;;;;;;;17.30;7.23;;;11.50;99.90;;;;;;5034803;28;20406;-84
2022/05/05 05:55:06;;;;;;;14.53;7.07;;;11.60;99.90;;;;;;5035626;28;20179;-84
2022/05/05 05:57:32;;;;;;;20.33;6.87;;;11.60;99.90;;;;;;5035059;28;20255;-84
2022/05/05 05:59:57;;;;;;;22.50;6.37;;;11.90;99.90;;;;;;5034522;28;20626;-83
2022/05/05 06:05:07;;;;;;;14.83;5.87;;;12.40;99.90;;;;;;5052700;28;20180;-81
2022/05/05 06:07:33;;;;;;;14.87;5.90;;;12.50;99.90;;;;;;5033927;28;20209;-81
2022/05/05 06:09:59;;;;;;;19.67;6.83;;;12.80;99.90;;;;;;5034330;28;20187;-80
2022/05/05 06:12:25;;;;;;;17.93;6.33;;;12.30;99.90;;;;;;5034336;28;20181;-80
2022/05/05 06:14:50;;;;;;;19.73;6.90;;;12.60;99.90;;;;;;5035784;28;20177;-80
2022/05/05 06:17:16;;;;;;;19.30;6.00;;;12.70;99.90;;;;;;5038802;28;20223;-80
2022/05/05 06:19:43;;;;;;;15.10;5.80;;;12.30;99.90;;;;;;5038822;28;20726;-80
2022/05/05 06:22:09;;;;;;;23.77;6.60;;;12.70;99.90;;;;;;5038967;28;20180;-83
2022/05/05 06:24:34;;;;;;;14.93;6.37;;;12.70;99.90;;;;;;5041619;28;20177;-81
2022/05/05 06:27:00;;;;;;;14.87;6.93;;;13.10;99.90;;;;;;5039485;28;20208;-81
2022/05/05 06:29:25;;;;;;;13.00;6.13;;;12.70;99.90;;;;;;5039412;28;20181;-82
2022/05/05 06:31:52;;;;;;;13.33;5.87;;;12.90;99.90;;;;;;5041798;28;20178;-81
2022/05/05 06:34:17;;;;;;;13.37;5.90;;;12.70;99.90;;;;;;5041551;28;20591;-81
2022/05/05 06:36:43;;;;;;;11.80;5.97;;;12.30;99.90;;;;;;5041828;28;20197;-82
2022/05/05 06:39:09;;;;;;;14.57;6.53;;;12.30;99.90;;;;;;5041898;28;20200;-81
2022/05/05 06:41:35;;;;;;;14.30;5.97;;;12.60;99.90;;;;;;5040908;28;20180;-81
2022/05/05 06:44:00;;;;;;;11.50;5.80;;;12.70;99.90;;;;;;5041856;28;20173;-81
2022/05/05 06:46:27;;;;;;;19.00;6.73;;;12.90;99.90;;;;;;5059606;28;20197;-82
2022/05/05 06:48:53;;;;;;;17.07;6.20;;;13.10;99.90;;;;;;5042619;28;20175;-82
2022/05/05 06:51:19;;;;;;;16.13;6.40;;;13.20;99.90;;;;;;5041434;28;20231;-81
2022/05/05 06:53:45;;;;;;;11.07;6.23;;;13.30;99.90;;;;;;5042347;28;20637;-81
2022/05/05 06:56:10;;;;;;;16.37;5.67;;;13.60;99.90;;;;;;5041792;28;20180;-80
2022/05/05 06:58:36;;;;;;;20.10;5.90;;;13.70;99.90;;;;;;5043709;28;20206;-80
2022/05/05 07:03:46;;;;;;;11.27;5.90;;;14.00;99.90;;;;;;5061541;28;20183;-81
2022/05/05 07:06:12;;;;;;;13.30;5.90;;;14.00;99.80;;;;;;5042943;28;20177;-81
2022/05/05 07:11:23;;;;;;;13.57;5.30;;;14.30;98.60;;;;;;5057859;28;20227;-82
2022/05/05 07:13:49;;;;;;;20.17;5.00;;;15.20;95.50;;;;;;5039925;28;20169;-83
2022/05/05 07:16:14;;;;;;;12.10;5.50;;;15.40;94.70;;;;;;5040007;28;20173;-83
2022/05/05 07:18:40;;;;;;;13.07;5.43;;;14.80;93.30;;;;;;5040123;28;20656;-83
2022/05/05 07:21:06;;;;;;;15.47;4.93;;;15.20;94.10;;;;;;5038857;28;20649;-83
2022/05/05 07:23:32;;;;;;;19.67;5.20;;;15.40;94.00;;;;;;5037425;28;20614;-82
2022/05/05 07:25:57;;;;;;;20.45;5.20;;;15.00;94.20;;;;;;5037759;28;20177;-83
2022/05/05 07:28:23;;;;;;;18.88;5.43;;;15.50;92.50;;;;;;5038003;28;20212;-83
2022/05/05 07:30:50;;;;;;;18.17;5.50;;;15.60;94.60;;;;;;5038579;28;20178;-83
2022/05/05 07:33:16;;;;;;;18.83;5.80;;;16.00;93.10;;;;;;5040774;28;20203;-83
2022/05/05 07:35:44;;;;;;;23.30;5.85;;;16.10;92.30;;;;;;5042788;28;20169;-83
2022/05/05 07:38:09;;;;;;;19.83;5.55;;;16.30;91.30;;;;;;5039883;28;20661;-83
2022/05/05 07:40:35;;;;;;;17.13;4.97;;;16.50;91.00;;;;;;5040084;28;20231;-83
2022/05/05 07:43:01;;;;;;;13.95;5.35;;;16.60;92.30;;;;;;5039203;28;20608;-83
2022/05/05 07:45:26;;;;;;;19.27;5.97;;;16.80;89.70;;;;;;5040112;28;20174;-82
2022/05/05 07:47:52;;;;;;;12.13;5.32;;;16.60;90.10;;;;;;5038416;28;20259;-82
2022/05/05 07:50:18;;;;;;;13.40;5.10;;;17.20;89.20;;;;;;5038461;28;20170;-83
2022/05/05 07:52:43;;;;;;;15.38;5.57;;;17.20;89.70;;;;;;5038196;28;20173;-82
2022/05/05 07:55:09;;;;;;;10.68;5.40;;;16.30;90.00;;;;;;5038323;28;20224;-83
2022/05/05 07:57:43;;;;;;;12.35;5.25;;;16.50;84.60;;;;;;5037487;28;20230;-82
2022/05/05 08:00:11;;;;;;;16.40;5.57;;;16.60;84.40;;;;;;5038797;28;20176;-83
2022/05/05 08:02:37;;;;;;;15.80;4.72;;;16.30;85.40;;;;;;5037602;28;20188;-83
2022/05/05 08:05:02;;;;;;;17.83;5.30;;;16.70;87.40;;;;;;5038643;28;20264;-82
2022/05/05 08:07:28;;;;;;;14.20;5.40;;;16.40;86.00;;;;;;5039316;28;20246;-83
2022/05/05 08:09:54;;;;;;;21.00;5.43;;;16.70;86.80;;;;;;5037927;28;20271;-82
2022/05/05 08:12:20;;;;;;;13.45;5.20;;;16.80;86.00;;;;;;5037646;28;20602;-83
2022/05/05 08:14:45;;;;;;;9.55;4.28;;;17.00;87.10;;;;;;5038012;28;20201;-82
2022/05/05 08:17:11;;;;;;;8.10;4.57;;;16.90;84.20;;;;;;5037570;28;20193;-82
2022/05/05 08:19:37;;;;;;;14.40;4.38;;;16.90;83.80;;;;;;5037065;28;20650;-82
2022/05/05 08:22:03;;;;;;;10.18;4.38;;;16.60;82.10;;;;;;5038285;28;20177;-83
2022/05/05 08:30:02;;;;;;;8.88;3.92;;;17.30;83.00;;;;;;5056686;28;20208;-82
2022/05/05 08:32:29;;;;;;;14.27;4.25;;;17.40;80.70;;;;;;5038281;28;20169;-82
2022/05/05 08:34:55;;;;;;;15.35;4.82;;;18.30;80.40;;;;;;5040136;28;20173;-83
2022/05/05 08:37:21;;;;;;;9.48;3.78;;;18.30;80.30;;;;;;5039306;28;20595;-83
2022/05/05 08:39:46;;;;;;;11.77;4.22;;;18.40;78.60;;;;;;5039029;28;20174;-82
2022/05/05 08:42:12;;;;;;;7.90;3.80;;;18.50;78.80;;;;;;5039154;28;20634;-83
2022/05/05 08:44:37;;;;;;;11.75;4.55;;;18.80;79.40;;;;;;5040661;28;20413;-84
2022/05/05 08:47:08;;;;;;;9.93;4.25;;;18.70;78.50;;;;;;5041884;28;20359;-84
2022/05/05 08:49:36;;;;;;;8.00;4.10;;;18.90;76.40;;;;;;5041434;28;20637;-83
2022/05/05 08:52:07;;;;;;;6.85;3.35;;;18.90;78.60;;;;;;5039127;28;20196;-83
2022/05/05 08:54:34;;;;;;;11.15;4.45;;;19.60;75.80;;;;;;5041273;28;20174;-83
2022/05/05 08:57:00;;;;;;;11.30;4.03;;;18.60;76.20;;;;;;5040299;28;20617;-84
2022/05/05 08:59:26;;;;;;;13.43;4.53;;;18.80;77.60;;;;;;5040767;28;20201;-84
2022/05/05 09:01:52;;;;;;;9.75;4.10;;;19.20;74.70;;;;;;5041656;28;20196;-83
2022/05/05 09:04:19;;;;;;;11.38;4.00;;;19.20;74.30;;;;;;5041826;28;20197;-83
2022/05/05 09:06:46;;;;;;;11.27;4.30;;;18.70;76.40;;;;;;5039885;28;20200;-83
2022/05/05 09:09:32;;;;;;;11.60;4.00;;;19.20;74.20;;;;;;5056813;28;20181;-83
2022/05/05 09:12:14;;;;;;;10.70;4.22;;;19.50;74.40;;;;;;5039849;28;20177;-83
2022/05/05 09:14:47;;;;;;;10.13;4.30;;;19.20;73.70;;;;;;5041602;28;20169;-83
2022/05/05 09:17:17;;;;;;;12.07;4.05;;;18.90;73.30;;;;;;5039979;28;20201;-83
2022/05/05 09:19:45;;;;;;;17.25;4.78;;;18.70;75.20;;;;;;5039329;28;20577;-83
2022/05/05 09:22:11;;;;;;;10.48;3.90;;;19.00;75.00;;;;;;5039563;28;20201;-83
2022/05/05 09:24:43;;;;;;;9.85;3.88;;;19.30;74.40;;;;;;5039223;28;20598;-83
2022/05/05 09:27:18;;;;;;;12.02;4.63;;;19.20;75.60;;;;;;5037517;28;20274;-83
2022/05/05 09:30:00;;;;;;;10.13;4.05;;;18.90;73.50;;;;;;5035151;28;20165;-83
2022/05/05 09:32:28;;;;;;;11.75;4.20;;;19.60;74.90;;;;;;5035306;28;20184;-83
2022/05/05 09:35:02;;;;;;;8.77;4.20;;;19.40;72.60;;;;;;5035127;28;20307;-83
2022/05/05 09:37:28;;;;;;;10.27;4.13;;;19.30;73.20;;;;;;5037686;28;20274;-83
2022/05/05 09:39:55;;;;;;;8.55;3.67;;;19.60;76.80;;;;;;5040919;28;20279;-83
2022/05/05 09:42:38;;;;;;;13.90;3.67;;;20.20;73.20;;;;;;5061435;28;20219;-83
2022/05/05 09:45:30;;;;;;;13.48;4.05;;;20.90;71.60;;;;;;5043254;28;20545;-83
2022/05/05 09:47:58;;;;;;;14.88;4.30;;;19.50;73.70;;;;;;5038383;28;20209;-83
2022/05/05 09:50:28;;;;;;;10.50;4.22;;;20.50;72.50;;;;;;5041708;28;20170;-84
2022/05/05 09:58:37;;;;;;;11.73;4.30;;;20.30;72.80;;;;;;5059343;28;20160;-83
2022/05/05 10:01:12;;;;;;;10.93;4.20;;;20.60;69.50;;;;;;5040364;28;20199;-83
2022/05/05 10:06:32;;;;;;;9.98;3.97;;;20.70;71.60;;;;;;5058284;28;20208;-84
2022/05/05 10:09:06;;;;;;;10.57;4.05;;;20.60;69.00;;;;;;5040234;28;20181;-85
2022/05/05 10:11:35;;;;;;;9.07;4.05;;;20.30;73.00;;;;;;5040088;28;20215;-83
2022/05/05 10:14:06;;;;;;;8.02;3.97;;;19.90;72.60;;;;;;5040452;28;20181;-83
2022/05/05 10:16:32;;;;;;;8.23;3.33;;;20.50;72.60;;;;;;5043360;28;20193;-84
2022/05/05 10:18:59;;;;;;;8.77;3.22;;;21.10;72.30;;;;;;5044790;28;20169;-84
2022/05/05 10:21:49;;;;;;;8.40;3.17;;;21.60;67.50;;;;;;5042400;28;20173;-83
2022/05/05 10:24:27;;;;;;;9.07;3.47;;;21.50;70.60;;;;;;5041443;28;20177;-84
2022/05/05 10:26:58;;;;;;;11.15;3.65;;;21.40;70.60;;;;;;5040645;28;20669;-83
2022/05/05 10:29:41;;;;;;;7.97;3.58;;;21.50;68.60;;;;;;5042401;28;20193;-83
2022/05/05 10:32:12;;;;;;;6.57;3.60;;;21.40;70.90;;;;;;5041765;28;20180;-85
2022/05/05 10:34:39;;;;;;;9.55;3.92;;;21.40;69.30;;;;;;5039371;28;20166;-84
2022/05/05 10:37:10;;;;;;;9.65;4.10;;;21.70;71.10;;;;;;5039083;28;20197;-86
2022/05/05 10:40:04;;;;;;;6.60;3.63;;;22.30;69.50;;;;;;5038855;28;20173;-85
2022/05/05 10:42:43;;;;;;;9.82;3.60;;;21.40;69.60;;;;;;5030688;28;20189;-85
2022/05/05 10:45:16;;;;;;;8.50;3.60;;;22.20;70.60;;;;;;5038738;28;20227;-87
2022/05/05 10:48:06;;;;;;;12.35;4.55;;;22.70;68.50;;;;;;5038469;28;20215;-85
2022/05/05 10:50:53;;;;;;;13.18;4.68;;;22.80;67.90;;;;;;5038522;28;20165;-86
2022/05/05 10:53:34;;;;;;;8.30;3.65;;;23.50;65.30;;;;;;5039919;28;20188;-85
2022/05/05 10:56:03;;;;;;;12.07;3.88;;;23.70;67.80;;;;;;5037858;28;20169;-84
2022/05/05 10:59:06;;;;;;;9.52;4.18;;;23.80;66.70;;;;;;5039375;28;20173;-85
2022/05/05 11:01:41;;;;;;;9.57;4.18;;;22.40;67.30;;;;;;5040540;28;20173;-85
2022/05/05 11:04:29;;;;;;;7.95;3.58;;;22.70;66.20;;;;;;5041881;28;20211;-84
2022/05/05 11:07:36;;;;;;;6.93;3.83;;;22.40;69.30;;;;;;5043442;28;20201;-84
2022/05/05 11:10:05;;;;;;;7.93;3.22;;;22.90;67.50;;;;;;5045344;28;20695;-85
2022/05/05 11:12:34;;;;;;;9.57;3.67;;;22.50;67.70;;;;;;5043494;28;20182;-85
2022/05/05 11:23:31;;;;;;;8.85;3.58;;;20.80;69.50;;;;;;5059058;28;20184;-86
2022/05/05 11:25:57;;;;;;;11.50;4.13;;;22.30;70.40;;;;;;5040903;28;20191;-85
2022/05/05 11:28:26;;;;;;;9.50;4.80;;;22.60;68.70;;;;;;5040109;28;20197;-86
2022/05/05 11:30:52;;;;;;;9.60;3.97;;;20.70;67.30;;;;;;5039963;28;20222;-83
2022/05/05 11:33:19;;;;;;;8.82;4.00;;;22.10;67.00;;;;;;5039964;28;20264;-84
2022/05/05 11:36:00;;;;;;;9.43;4.20;;;23.20;66.50;;;;;;5040261;28;20629;-84
2022/05/05 11:38:28;;;;;;;8.35;4.38;;;24.10;65.20;;;;;;5040066;28;20177;-84
2022/05/05 11:40:59;;;;;;;8.20;4.05;;;24.10;63.00;;;;;;5040289;28;20178;-85
2022/05/05 11:46:09;;;;;;;7.63;4.25;;;21.50;66.40;;;;;;5057615;28;20188;-84
2022/05/05 11:48:35;;;;;;;11.02;3.90;;;22.20;65.90;;;;;;5039711;28;20206;-85
2022/05/05 11:51:04;;;;;;;6.75;4.22;;;22.60;66.50;;;;;;5039300;28;20169;-84
2022/05/05 11:53:30;;;;;;;9.65;4.00;;;22.20;65.50;;;;;;5038998;28;20260;-85
2022/05/05 11:55:55;;;;;;;9.30;3.90;;;22.30;65.10;;;;;;5039414;28;20235;-86
2022/05/05 12:04:02;;;;;;;9.60;3.75;;;22.80;67.10;;;;;;5058289;28;20667;-85
2022/05/05 12:06:29;;;;;;;8.45;3.80;;;22.10;66.50;;;;;;5039228;28;20211;-83
2022/05/05 12:08:58;;;;;;;6.03;3.83;;;22.40;65.60;;;;;;5038155;28;20296;-85
2022/05/05 12:11:30;;;;;;;8.48;3.90;;;21.50;67.30;;;;;;5038165;28;20186;-83
2022/05/05 12:14:00;;;;;;;9.48;4.00;;;20.60;68.60;;;;;;5038601;28;20166;-83
2022/05/05 12:16:31;;;;;;;14.82;4.13;;;20.50;69.40;;;;;;5038574;28;20189;-84
2022/05/05 12:18:57;;;;;;;7.45;4.15;;;21.10;69.50;;;;;;5038369;28;20240;-84
2022/05/05 12:21:24;;;;;;;5.85;4.03;;;20.50;69.60;;;;;;5037651;28;20585;-84
2022/05/05 12:24:03;;;;;;;7.30;4.07;;;20.80;67.80;;;;;;5037410;28;20182;-83
2022/05/05 12:26:32;;;;;;;14.45;4.00;;;20.00;67.50;;;;;;5040088;28;20192;-84
2022/05/05 12:29:01;;;;;;;5.75;3.00;;;20.50;69.10;;;;;;5040828;28;20569;-83
2022/05/05 12:31:30;;;;;;;6.63;3.35;;;20.20;70.30;;;;;;5041215;28;20177;-85
2022/05/05 12:33:57;;;;;;;6.82;3.53;;;20.30;67.60;;;;;;5041958;28;20180;-83
2022/05/05 12:36:29;;;;;;;5.60;3.00;;;21.10;69.80;;;;;;5041167;28;20185;-84
2022/05/05 12:39:11;;;;;;;6.63;2.80;;;20.10;65.00;;;;;;5040678;28;20178;-84
2022/05/05 12:41:37;;;;;;;7.70;3.03;;;20.10;68.70;;;;;;5040081;28;20173;-83
2022/05/05 12:44:08;;;;;;;6.22;3.65;;;20.70;67.00;;;;;;5040060;28;20603;-83
2022/05/05 12:46:35;;;;;;;5.80;3.72;;;20.80;69.80;;;;;;5041112;28;20193;-84
2022/05/05 12:49:00;;;;;;;4.95;3.08;;;20.90;68.50;;;;;;5041115;28;20188;-84
2022/05/05 12:51:33;;;;;;;7.28;3.10;;;20.60;67.70;;;;;;5040274;28;20170;-83
2022/05/05 12:59:36;;;;;;;5.68;3.38;;;20.80;68.10;;;;;;5060302;28;20208;-84
2022/05/05 13:02:05;;;;;;;6.43;3.08;;;20.60;64.80;;;;;;5041815;28;20172;-84
2022/05/05 13:04:30;;;;;;;10.00;3.30;;;20.00;66.60;;;;;;5042909;28;20179;-83
2022/05/05 13:06:56;;;;;;;6.28;3.42;;;19.80;69.30;;;;;;5042788;28;20209;-84
2022/05/05 13:09:22;;;;;;;4.88;3.35;;;19.70;67.60;;;;;;5043629;28;20192;-82
2022/05/05 13:11:51;;;;;;;7.07;3.03;;;20.40;69.60;;;;;;5042331;28;20170;-83
2022/05/05 13:14:18;;;;;;;6.55;3.65;;;20.60;68.30;;;;;;5042063;28;20295;-82
2022/05/05 13:16:44;;;;;;;6.45;2.38;;;20.60;68.60;;;;;;5040162;28;20194;-83
2022/05/05 13:19:10;;;;;;;6.65;3.15;;;20.00;64.00;;;;;;5040897;28;20170;-82
2022/05/05 13:21:36;;;;;;;4.50;3.17;;;20.60;69.20;;;;;;5041089;28;20192;-83
2022/05/05 13:24:02;;;;;;;4.70;3.08;;;20.80;68.00;;;;;;5038159;28;20176;-79
2022/05/05 13:26:28;;;;;;;7.03;2.25;;;21.00;67.60;;;;;;5037999;28;20194;-81
2022/05/05 13:28:55;;;;;;;6.13;2.15;;;21.00;67.70;;;;;;5039658;28;20302;-81
2022/05/05 13:31:21;;;;;;;6.40;2.40;;;20.70;64.30;;;;;;5039726;28;20275;-80
2022/05/05 13:33:47;;;;;;;7.15;2.78;;;20.50;65.50;;;;;;5039098;28;20260;-80
2022/05/05 13:36:12;;;;;;;11.68;2.78;;;20.80;68.30;;;;;;5039393;28;20193;-82
2022/05/05 13:38:38;;;;;;;12.02;3.10;;;20.90;65.90;;;;;;5039704;28;20199;-82
2022/05/05 13:41:04;;;;;;;15.98;2.72;;;20.30;67.50;;;;;;5039921;28;20277;-81
2022/05/05 13:43:30;;;;;;;7.45;2.63;;;19.90;65.70;;;;;;5039554;28;20179;-82